sensor_id;sensor_type;location;lat;lon;timestamp;temperature;humidity
71837;DHT22;59686;51.716;7.016;2023-12-14T00:02:01;10.40;98.40
71837;DHT22;59686;51.716;7.016;2023-12-14T00:04:26;10.40;98.40
71837;DHT22;59686;51.716;7.016;2023-12-14T00:06:52;10.50;98.40
71837;DHT22;59686;51.716;7.016;2023-12-14T00:09:18;10.40;98.40
71837;DHT22;59686;51.716;7.016;2023-12-14T00:11:43;10.40;98.40
71837;DHT22;59686;51.716;7.016;2023-12-14T00:14:09;10.40;98.40
71837;DHT22;59686;51.716;7.016;2023-12-14T00:16:34;10.40;98.40
71837;DHT22;59686;51.716;7.016;2023-12-14T00:19:00;10.40;98.30
71837;DHT22;59686;51.716;7.016;2023-12-14T00:21:32;10.40;98.30
71837;DHT22;59686;51.716;7.016;2023-12-14T00:23:58;10.40;98.30
71837;DHT22;59686;51.716;7.016;2023-12-14T00:26:23;10.50;98.30
71837;DHT22;59686;51.716;7.016;2023-12-14T00:28:49;10.40;98.30
71837;DHT22;59686;51.716;7.016;2023-12-14T00:31:15;10.40;98.30
71837;DHT22;59686;51.716;7.016;2023-12-14T00:33:40;10.40;98.30
71837;DHT22;59686;51.716;7.016;2023-12-14T00:36:06;10.40;98.30
71837;DHT22;59686;51.716;7.016;2023-12-14T00:38:47;10.40;98.30
71837;DHT22;59686;51.716;7.016;2023-12-14T00:41:13;10.40;98.20
71837;DHT22;59686;51.716;7.016;2023-12-14T00:43:39;10.40;98.20
71837;DHT22;59686;51.716;7.016;2023-12-14T00:46:04;10.40;98.20
71837;DHT22;59686;51.716;7.016;2023-12-14T00:48:30;10.40;98.20
71837;DHT22;59686;51.716;7.016;2023-12-14T00:50:56;10.40;98.20
71837;DHT22;59686;51.716;7.016;2023-12-14T00:53:21;10.40;98.20
71837;DHT22;59686;51.716;7.016;2023-12-14T00:55:47;10.40;98.20
71837;DHT22;59686;51.716;7.016;2023-12-14T00:58:42;10.30;98.20
71837;DHT22;59686;51.716;7.016;2023-12-14T01:01:08;10.30;98.20
71837;DHT22;59686;51.716;7.016;2023-12-14T01:03:52;10.30;98.20
71837;DHT22;59686;51.716;7.016;2023-12-14T01:06:17;10.30;98.20
71837;DHT22;59686;51.716;7.016;2023-12-14T01:08:43;10.30;98.20
71837;DHT22;59686;51.716;7.016;2023-12-14T01:11:09;10.30;98.20
71837;DHT22;59686;51.716;7.016;2023-12-14T01:13:35;10.30;98.20
71837;DHT22;59686;51.716;7.016;2023-12-14T01:16:00;10.30;98.20
71837;DHT22;59686;51.716;7.016;2023-12-14T01:18:26;10.30;98.20
71837;DHT22;59686;51.716;7.016;2023-12-14T01:20:52;10.30;98.20
71837;DHT22;59686;51.716;7.016;2023-12-14T01:23:17;10.30;98.20
71837;DHT22;59686;51.716;7.016;2023-12-14T01:25:43;10.30;98.10
71837;DHT22;59686;51.716;7.016;2023-12-14T01:28:09;10.30;98.10
71837;DHT22;59686;51.716;7.016;2023-12-14T01:30:34;10.30;98.10
71837;DHT22;59686;51.716;7.016;2023-12-14T01:33:00;10.30;98.10
71837;DHT22;59686;51.716;7.016;2023-12-14T01:35:26;10.30;98.10
71837;DHT22;59686;51.716;7.016;2023-12-14T01:38:01;10.30;98.10
71837;DHT22;59686;51.716;7.016;2023-12-14T01:40:27;10.30;98.00
71837;DHT22;59686;51.716;7.016;2023-12-14T01:42:53;10.30;98.10
71837;DHT22;59686;51.716;7.016;2023-12-14T01:45:18;10.30;98.00
71837;DHT22;59686;51.716;7.016;2023-12-14T01:47:45;10.30;98.00
71837;DHT22;59686;51.716;7.016;2023-12-14T01:50:11;10.30;98.00
71837;DHT22;59686;51.716;7.016;2023-12-14T01:52:36;10.30;98.00
71837;DHT22;59686;51.716;7.016;2023-12-14T01:55:03;10.30;98.00
71837;DHT22;59686;51.716;7.016;2023-12-14T01:57:29;10.30;97.90
71837;DHT22;59686;51.716;7.016;2023-12-14T01:59:54;10.30;98.00
71837;DHT22;59686;51.716;7.016;2023-12-14T02:02:20;10.30;97.80
71837;DHT22;59686;51.716;7.016;2023-12-14T02:07:21;10.30;97.90
71837;DHT22;59686;51.716;7.016;2023-12-14T02:09:47;10.30;97.90
71837;DHT22;59686;51.716;7.016;2023-12-14T02:12:12;10.30;97.90
71837;DHT22;59686;51.716;7.016;2023-12-14T02:14:38;10.30;97.90
71837;DHT22;59686;51.716;7.016;2023-12-14T02:17:04;10.30;97.90
71837;DHT22;59686;51.716;7.016;2023-12-14T02:19:29;10.30;97.90
71837;DHT22;59686;51.716;7.016;2023-12-14T02:21:55;10.20;97.80
71837;DHT22;59686;51.716;7.016;2023-12-14T02:24:21;10.30;97.90
71837;DHT22;59686;51.716;7.016;2023-12-14T02:26:46;10.30;97.90
71837;DHT22;59686;51.716;7.016;2023-12-14T02:29:13;10.30;98.00
71837;DHT22;59686;51.716;7.016;2023-12-14T02:31:38;10.30;98.00
71837;DHT22;59686;51.716;7.016;2023-12-14T02:34:04;10.30;98.00
71837;DHT22;59686;51.716;7.016;2023-12-14T02:36:29;10.30;98.00
71837;DHT22;59686;51.716;7.016;2023-12-14T02:38:55;10.30;98.00
71837;DHT22;59686;51.716;7.016;2023-12-14T02:41:21;10.30;98.00
71837;DHT22;59686;51.716;7.016;2023-12-14T02:43:46;10.40;97.90
71837;DHT22;59686;51.716;7.016;2023-12-14T02:46:26;10.30;97.80
71837;DHT22;59686;51.716;7.016;2023-12-14T02:48:52;10.10;97.80
71837;DHT22;59686;51.716;7.016;2023-12-14T02:51:18;10.20;97.90
71837;DHT22;59686;51.716;7.016;2023-12-14T02:53:43;10.20;97.90
71837;DHT22;59686;51.716;7.016;2023-12-14T02:56:10;10.20;97.90
71837;DHT22;59686;51.716;7.016;2023-12-14T02:58:36;10.20;97.90
71837;DHT22;59686;51.716;7.016;2023-12-14T03:01:02;10.20;97.90
71837;DHT22;59686;51.716;7.016;2023-12-14T03:03:27;10.20;97.80
71837;DHT22;59686;51.716;7.016;2023-12-14T03:05:54;10.20;97.90
71837;DHT22;59686;51.716;7.016;2023-12-14T03:08:20;10.20;97.90
71837;DHT22;59686;51.716;7.016;2023-12-14T03:10:46;10.20;97.90
71837;DHT22;59686;51.716;7.016;2023-12-14T03:13:11;10.20;97.80
71837;DHT22;59686;51.716;7.016;2023-12-14T03:15:37;10.20;97.80
71837;DHT22;59686;51.716;7.016;2023-12-14T03:18:03;10.20;97.80
71837;DHT22;59686;51.716;7.016;2023-12-14T03:20:29;10.20;97.70
71837;DHT22;59686;51.716;7.016;2023-12-14T03:22:55;10.20;97.80
71837;DHT22;59686;51.716;7.016;2023-12-14T03:25:21;10.20;97.80
71837;DHT22;59686;51.716;7.016;2023-12-14T03:27:47;10.20;97.80
71837;DHT22;59686;51.716;7.016;2023-12-14T03:30:12;10.20;97.70
71837;DHT22;59686;51.716;7.016;2023-12-14T03:32:38;10.10;97.60
71837;DHT22;59686;51.716;7.016;2023-12-14T03:35:04;10.20;97.70
71837;DHT22;59686;51.716;7.016;2023-12-14T03:37:30;10.20;97.70
71837;DHT22;59686;51.716;7.016;2023-12-14T03:39:56;10.20;97.50
71837;DHT22;59686;51.716;7.016;2023-12-14T03:42:21;10.20;97.60
71837;DHT22;59686;51.716;7.016;2023-12-14T03:44:47;10.10;97.60
71837;DHT22;59686;51.716;7.016;2023-12-14T03:47:26;10.20;97.70
71837;DHT22;59686;51.716;7.016;2023-12-14T03:49:52;10.10;97.60
71837;DHT22;59686;51.716;7.016;2023-12-14T03:52:17;10.10;97.60
71837;DHT22;59686;51.716;7.016;2023-12-14T03:54:43;10.20;97.70
71837;DHT22;59686;51.716;7.016;2023-12-14T03:57:09;10.20;97.70
71837;DHT22;59686;51.716;7.016;2023-12-14T03:59:38;10.10;97.70
71837;DHT22;59686;51.716;7.016;2023-12-14T04:02:04;10.20;97.70
71837;DHT22;59686;51.716;7.016;2023-12-14T04:04:30;10.20;97.60
71837;DHT22;59686;51.716;7.016;2023-12-14T04:06:55;10.20;97.70
71837;DHT22;59686;51.716;7.016;2023-12-14T04:09:21;10.10;97.70
71837;DHT22;59686;51.716;7.016;2023-12-14T04:11:47;10.20;97.70
71837;DHT22;59686;51.716;7.016;2023-12-14T04:14:12;10.10;97.60
71837;DHT22;59686;51.716;7.016;2023-12-14T04:16:38;10.10;97.60
71837;DHT22;59686;51.716;7.016;2023-12-14T04:19:04;10.10;97.60
71837;DHT22;59686;51.716;7.016;2023-12-14T04:21:36;10.10;97.60
71837;DHT22;59686;51.716;7.016;2023-12-14T04:24:01;10.10;97.60
71837;DHT22;59686;51.716;7.016;2023-12-14T04:26:27;10.10;97.60
71837;DHT22;59686;51.716;7.016;2023-12-14T04:28:53;10.10;97.60
71837;DHT22;59686;51.716;7.016;2023-12-14T04:31:19;10.10;97.60
71837;DHT22;59686;51.716;7.016;2023-12-14T04:33:44;10.10;97.50
71837;DHT22;59686;51.716;7.016;2023-12-14T04:36:10;10.10;97.50
71837;DHT22;59686;51.716;7.016;2023-12-14T04:38:36;10.10;97.60
71837;DHT22;59686;51.716;7.016;2023-12-14T04:41:04;10.10;97.60
71837;DHT22;59686;51.716;7.016;2023-12-14T04:43:30;10.10;97.50
71837;DHT22;59686;51.716;7.016;2023-12-14T04:45:57;10.10;97.50
71837;DHT22;59686;51.716;7.016;2023-12-14T04:48:23;10.10;97.50
71837;DHT22;59686;51.716;7.016;2023-12-14T04:50:48;10.10;97.50
71837;DHT22;59686;51.716;7.016;2023-12-14T04:53:14;10.10;97.60
71837;DHT22;59686;51.716;7.016;2023-12-14T04:55:40;10.10;97.60
71837;DHT22;59686;51.716;7.016;2023-12-14T04:58:06;10.10;97.50
71837;DHT22;59686;51.716;7.016;2023-12-14T05:00:35;10.10;97.50
71837;DHT22;59686;51.716;7.016;2023-12-14T05:03:01;10.10;97.50
71837;DHT22;59686;51.716;7.016;2023-12-14T05:05:26;10.10;97.50
71837;DHT22;59686;51.716;7.016;2023-12-14T05:07:52;10.10;97.60
71837;DHT22;59686;51.716;7.016;2023-12-14T05:10:18;10.00;97.50
71837;DHT22;59686;51.716;7.016;2023-12-14T05:12:43;10.10;97.60
71837;DHT22;59686;51.716;7.016;2023-12-14T05:15:09;10.10;97.50
71837;DHT22;59686;51.716;7.016;2023-12-14T05:17:36;10.10;97.90
71837;DHT22;59686;51.716;7.016;2023-12-14T05:20:07;10.10;97.60
71837;DHT22;59686;51.716;7.016;2023-12-14T05:22:33;10.10;97.60
71837;DHT22;59686;51.716;7.016;2023-12-14T05:24:59;10.10;97.60
71837;DHT22;59686;51.716;7.016;2023-12-14T05:27:25;10.10;97.50
71837;DHT22;59686;51.716;7.016;2023-12-14T05:29:50;10.10;97.50
71837;DHT22;59686;51.716;7.016;2023-12-14T05:32:16;10.10;97.50
71837;DHT22;59686;51.716;7.016;2023-12-14T05:34:42;10.10;97.50
71837;DHT22;59686;51.716;7.016;2023-12-14T05:37:07;10.10;97.50
71837;DHT22;59686;51.716;7.016;2023-12-14T05:39:33;10.10;97.50
71837;DHT22;59686;51.716;7.016;2023-12-14T05:41:59;9.90;97.50
71837;DHT22;59686;51.716;7.016;2023-12-14T05:44:24;10.00;97.50
71837;DHT22;59686;51.716;7.016;2023-12-14T05:46:50;10.00;97.50
71837;DHT22;59686;51.716;7.016;2023-12-14T05:49:16;10.10;97.50
71837;DHT22;59686;51.716;7.016;2023-12-14T05:51:42;10.10;97.50
71837;DHT22;59686;51.716;7.016;2023-12-14T05:54:08;10.00;97.50
71837;DHT22;59686;51.716;7.016;2023-12-14T05:56:33;10.00;97.40
71837;DHT22;59686;51.716;7.016;2023-12-14T05:59:06;10.00;97.40
71837;DHT22;59686;51.716;7.016;2023-12-14T06:01:32;10.00;97.50
71837;DHT22;59686;51.716;7.016;2023-12-14T06:03:57;10.00;97.50
71837;DHT22;59686;51.716;7.016;2023-12-14T06:06:23;10.00;97.50
71837;DHT22;59686;51.716;7.016;2023-12-14T06:08:49;10.00;97.50
71837;DHT22;59686;51.716;7.016;2023-12-14T06:11:15;10.00;97.40
71837;DHT22;59686;51.716;7.016;2023-12-14T06:13:40;10.00;97.30
71837;DHT22;59686;51.716;7.016;2023-12-14T06:16:06;10.00;97.30
71837;DHT22;59686;51.716;7.016;2023-12-14T06:18:38;10.00;97.40
71837;DHT22;59686;51.716;7.016;2023-12-14T06:21:07;10.00;97.40
71837;DHT22;59686;51.716;7.016;2023-12-14T06:23:49;10.10;97.40
71837;DHT22;59686;51.716;7.016;2023-12-14T06:26:14;10.00;97.40
71837;DHT22;59686;51.716;7.016;2023-12-14T06:28:40;10.00;97.30
71837;DHT22;59686;51.716;7.016;2023-12-14T06:31:06;10.00;97.40
71837;DHT22;59686;51.716;7.016;2023-12-14T06:33:43;10.00;97.30
71837;DHT22;59686;51.716;7.016;2023-12-14T06:36:09;10.00;97.30
71837;DHT22;59686;51.716;7.016;2023-12-14T06:38:38;10.00;97.30
71837;DHT22;59686;51.716;7.016;2023-12-14T06:41:04;10.00;97.30
71837;DHT22;59686;51.716;7.016;2023-12-14T06:43:30;10.00;97.30
71837;DHT22;59686;51.716;7.016;2023-12-14T06:46:02;10.00;97.20
71837;DHT22;59686;51.716;7.016;2023-12-14T06:48:29;10.00;97.20
71837;DHT22;59686;51.716;7.016;2023-12-14T06:50:54;10.00;97.20
71837;DHT22;59686;51.716;7.016;2023-12-14T06:53:20;10.00;97.20
71837;DHT22;59686;51.716;7.016;2023-12-14T06:55:46;9.90;97.20
71837;DHT22;59686;51.716;7.016;2023-12-14T06:58:11;9.90;97.20
71837;DHT22;59686;51.716;7.016;2023-12-14T07:00:43;9.90;97.20
71837;DHT22;59686;51.716;7.016;2023-12-14T07:03:09;10.00;97.20
71837;DHT22;59686;51.716;7.016;2023-12-14T07:05:34;9.90;97.10
71837;DHT22;59686;51.716;7.016;2023-12-14T07:08:00;10.00;97.10
71837;DHT22;59686;51.716;7.016;2023-12-14T07:10:28;10.00;97.20
71837;DHT22;59686;51.716;7.016;2023-12-14T07:12:54;9.90;97.10
71837;DHT22;59686;51.716;7.016;2023-12-14T07:15:19;9.90;97.10
71837;DHT22;59686;51.716;7.016;2023-12-14T07:17:45;9.90;97.00
71837;DHT22;59686;51.716;7.016;2023-12-14T07:20:11;9.90;97.10
71837;DHT22;59686;51.716;7.016;2023-12-14T07:22:37;9.80;97.10
71837;DHT22;59686;51.716;7.016;2023-12-14T07:25:03;9.90;97.10
71837;DHT22;59686;51.716;7.016;2023-12-14T07:27:29;9.90;97.00
71837;DHT22;59686;51.716;7.016;2023-12-14T07:29:55;9.90;97.10
71837;DHT22;59686;51.716;7.016;2023-12-14T07:32:21;10.00;97.00
71837;DHT22;59686;51.716;7.016;2023-12-14T07:34:47;9.90;97.10
71837;DHT22;59686;51.716;7.016;2023-12-14T07:37:13;9.90;97.10
71837;DHT22;59686;51.716;7.016;2023-12-14T07:39:38;9.80;97.10
71837;DHT22;59686;51.716;7.016;2023-12-14T07:42:04;9.90;97.10
71837;DHT22;59686;51.716;7.016;2023-12-14T07:44:41;9.90;97.10
71837;DHT22;59686;51.716;7.016;2023-12-14T07:47:06;9.90;97.10
71837;DHT22;59686;51.716;7.016;2023-12-14T07:49:32;9.90;97.10
71837;DHT22;59686;51.716;7.016;2023-12-14T07:51:58;9.90;97.10
71837;DHT22;59686;51.716;7.016;2023-12-14T07:54:23;9.90;97.10
71837;DHT22;59686;51.716;7.016;2023-12-14T07:56:52;9.90;97.10
71837;DHT22;59686;51.716;7.016;2023-12-14T07:59:47;9.90;97.20
71837;DHT22;59686;51.716;7.016;2023-12-14T08:02:12;9.90;97.20
71837;DHT22;59686;51.716;7.016;2023-12-14T08:04:43;9.90;97.10
71837;DHT22;59686;51.716;7.016;2023-12-14T08:07:09;9.90;97.10
71837;DHT22;59686;51.716;7.016;2023-12-14T08:09:34;9.80;97.10
71837;DHT22;59686;51.716;7.016;2023-12-14T08:12:00;9.90;97.10
71837;DHT22;59686;51.716;7.016;2023-12-14T08:14:26;9.90;97.10
71837;DHT22;59686;51.716;7.016;2023-12-14T08:17:08;9.90;97.10
71837;DHT22;59686;51.716;7.016;2023-12-14T08:19:34;9.90;97.10
71837;DHT22;59686;51.716;7.016;2023-12-14T08:21:59;9.80;97.10
71837;DHT22;59686;51.716;7.016;2023-12-14T08:24:25;9.80;97.00
71837;DHT22;59686;51.716;7.016;2023-12-14T08:26:51;9.80;97.00
71837;DHT22;59686;51.716;7.016;2023-12-14T08:29:16;9.80;97.00
71837;DHT22;59686;51.716;7.016;2023-12-14T08:31:43;9.80;97.00
71837;DHT22;59686;51.716;7.016;2023-12-14T08:34:09;9.80;97.00
71837;DHT22;59686;51.716;7.016;2023-12-14T08:36:34;9.80;97.00
71837;DHT22;59686;51.716;7.016;2023-12-14T08:39:08;9.80;97.00
71837;DHT22;59686;51.716;7.016;2023-12-14T08:41:33;9.80;97.00
71837;DHT22;59686;51.716;7.016;2023-12-14T08:43:59;9.80;97.00
71837;DHT22;59686;51.716;7.016;2023-12-14T08:46:25;9.80;97.00
71837;DHT22;59686;51.716;7.016;2023-12-14T08:48:50;9.80;96.90
71837;DHT22;59686;51.716;7.016;2023-12-14T08:51:17;9.80;97.00
71837;DHT22;59686;51.716;7.016;2023-12-14T08:53:52;9.80;96.90
71837;DHT22;59686;51.716;7.016;2023-12-14T08:56:18;9.80;96.90
71837;DHT22;59686;51.716;7.016;2023-12-14T08:58:44;9.80;96.90
71837;DHT22;59686;51.716;7.016;2023-12-14T09:01:09;9.80;96.90
71837;DHT22;59686;51.716;7.016;2023-12-14T09:03:35;9.80;96.90
71837;DHT22;59686;51.716;7.016;2023-12-14T09:06:00;9.80;96.90
71837;DHT22;59686;51.716;7.016;2023-12-14T09:08:30;9.80;96.80
71837;DHT22;59686;51.716;7.016;2023-12-14T09:10:56;9.80;96.80
71837;DHT22;59686;51.716;7.016;2023-12-14T09:13:22;9.80;96.90
71837;DHT22;59686;51.716;7.016;2023-12-14T09:15:47;9.80;97.20
71837;DHT22;59686;51.716;7.016;2023-12-14T09:18:13;9.80;96.90
71837;DHT22;59686;51.716;7.016;2023-12-14T09:20:42;9.80;96.90
71837;DHT22;59686;51.716;7.016;2023-12-14T09:23:08;9.80;96.90
71837;DHT22;59686;51.716;7.016;2023-12-14T09:25:35;9.80;96.90
71837;DHT22;59686;51.716;7.016;2023-12-14T09:28:01;9.80;96.90
71837;DHT22;59686;51.716;7.016;2023-12-14T09:30:27;9.80;96.90
71837;DHT22;59686;51.716;7.016;2023-12-14T09:32:52;9.80;96.80
71837;DHT22;59686;51.716;7.016;2023-12-14T09:35:25;9.80;96.80
71837;DHT22;59686;51.716;7.016;2023-12-14T09:37:51;9.80;96.80
71837;DHT22;59686;51.716;7.016;2023-12-14T09:40:17;9.80;96.80
71837;DHT22;59686;51.716;7.016;2023-12-14T09:42:44;9.80;96.90
71837;DHT22;59686;51.716;7.016;2023-12-14T09:45:10;9.80;97.10
71837;DHT22;59686;51.716;7.016;2023-12-14T09:47:40;9.80;96.70
71837;DHT22;59686;51.716;7.016;2023-12-14T09:50:16;9.80;96.70
71837;DHT22;59686;51.716;7.016;2023-12-14T09:52:46;9.80;96.70
71837;DHT22;59686;51.716;7.016;2023-12-14T09:55:14;9.80;96.70
71837;DHT22;59686;51.716;7.016;2023-12-14T09:57:40;9.80;96.70
71837;DHT22;59686;51.716;7.016;2023-12-14T10:00:06;9.80;96.80
71837;DHT22;59686;51.716;7.016;2023-12-14T10:02:39;9.80;96.80
71837;DHT22;59686;51.716;7.016;2023-12-14T10:05:09;9.80;96.70
71837;DHT22;59686;51.716;7.016;2023-12-14T10:07:41;9.80;96.70
71837;DHT22;59686;51.716;7.016;2023-12-14T10:10:16;9.80;96.80
71837;DHT22;59686;51.716;7.016;2023-12-14T10:12:51;9.80;96.80
71837;DHT22;59686;51.716;7.016;2023-12-14T10:15:29;9.80;96.80
71837;DHT22;59686;51.716;7.016;2023-12-14T10:17:55;9.80;96.70
71837;DHT22;59686;51.716;7.016;2023-12-14T10:20:23;9.80;96.80
71837;DHT22;59686;51.716;7.016;2023-12-14T10:23:01;9.80;96.80
71837;DHT22;59686;51.716;7.016;2023-12-14T10:25:35;9.80;96.70
71837;DHT22;59686;51.716;7.016;2023-12-14T10:28:04;9.70;96.70
71837;DHT22;59686;51.716;7.016;2023-12-14T10:30:54;9.80;96.70
71837;DHT22;59686;51.716;7.016;2023-12-14T10:33:20;9.70;96.60
71837;DHT22;59686;51.716;7.016;2023-12-14T10:35:46;9.70;96.60
71837;DHT22;59686;51.716;7.016;2023-12-14T10:38:20;9.70;96.60
71837;DHT22;59686;51.716;7.016;2023-12-14T10:40:47;9.70;96.60
71837;DHT22;59686;51.716;7.016;2023-12-14T10:43:15;9.70;96.60
71837;DHT22;59686;51.716;7.016;2023-12-14T10:46:01;9.70;96.60
71837;DHT22;59686;51.716;7.016;2023-12-14T10:48:31;9.70;96.70
71837;DHT22;59686;51.716;7.016;2023-12-14T10:50:59;9.70;96.60
71837;DHT22;59686;51.716;7.016;2023-12-14T10:53:27;9.70;96.70
71837;DHT22;59686;51.716;7.016;2023-12-14T10:56:04;9.70;96.60
71837;DHT22;59686;51.716;7.016;2023-12-14T10:59:07;9.70;96.60
71837;DHT22;59686;51.716;7.016;2023-12-14T11:01:33;9.70;96.60
71837;DHT22;59686;51.716;7.016;2023-12-14T11:04:00;9.70;96.60
71837;DHT22;59686;51.716;7.016;2023-12-14T11:06:36;9.70;96.60
71837;DHT22;59686;51.716;7.016;2023-12-14T11:09:22;9.80;96.70
71837;DHT22;59686;51.716;7.016;2023-12-14T11:14:35;9.70;96.60
71837;DHT22;59686;51.716;7.016;2023-12-14T11:17:07;9.70;96.60
71837;DHT22;59686;51.716;7.016;2023-12-14T11:19:44;9.70;96.60
71837;DHT22;59686;51.716;7.016;2023-12-14T11:22:26;9.60;96.60
71837;DHT22;59686;51.716;7.016;2023-12-14T11:24:54;9.70;96.60
71837;DHT22;59686;51.716;7.016;2023-12-14T11:27:54;9.70;96.50
71837;DHT22;59686;51.716;7.016;2023-12-14T11:30:20;9.70;96.50
71837;DHT22;59686;51.716;7.016;2023-12-14T11:32:47;9.70;96.50
71837;DHT22;59686;51.716;7.016;2023-12-14T11:35:18;9.70;96.50
71837;DHT22;59686;51.716;7.016;2023-12-14T11:37:44;9.70;96.40
71837;DHT22;59686;51.716;7.016;2023-12-14T11:40:10;9.60;96.40
71837;DHT22;59686;51.716;7.016;2023-12-14T11:42:40;9.70;96.50
71837;DHT22;59686;51.716;7.016;2023-12-14T11:45:11;9.70;96.50
71837;DHT22;59686;51.716;7.016;2023-12-14T11:47:41;9.70;96.50
71837;DHT22;59686;51.716;7.016;2023-12-14T11:50:22;9.70;96.50
71837;DHT22;59686;51.716;7.016;2023-12-14T11:52:55;9.70;96.40
71837;DHT22;59686;51.716;7.016;2023-12-14T11:55:21;9.70;96.40
71837;DHT22;59686;51.716;7.016;2023-12-14T11:57:51;9.70;96.50
71837;DHT22;59686;51.716;7.016;2023-12-14T12:00:29;9.70;96.50
71837;DHT22;59686;51.716;7.016;2023-12-14T12:03:24;9.70;96.50
71837;DHT22;59686;51.716;7.016;2023-12-14T12:05:51;9.70;96.30
71837;DHT22;59686;51.716;7.016;2023-12-14T12:08:19;9.70;96.50
71837;DHT22;59686;51.716;7.016;2023-12-14T12:10:57;9.70;96.50
71837;DHT22;59686;51.716;7.016;2023-12-14T12:13:23;9.70;96.50
71837;DHT22;59686;51.716;7.016;2023-12-14T12:15:50;9.70;96.40
71837;DHT22;59686;51.716;7.016;2023-12-14T12:18:39;9.70;96.50
71837;DHT22;59686;51.716;7.016;2023-12-14T12:21:14;9.70;96.50
71837;DHT22;59686;51.716;7.016;2023-12-14T12:23:39;9.70;96.50
71837;DHT22;59686;51.716;7.016;2023-12-14T12:26:17;9.70;96.50
71837;DHT22;59686;51.716;7.016;2023-12-14T12:28:44;9.70;96.50
71837;DHT22;59686;51.716;7.016;2023-12-14T12:31:14;9.70;96.60
71837;DHT22;59686;51.716;7.016;2023-12-14T12:33:56;9.70;96.40
71837;DHT22;59686;51.716;7.016;2023-12-14T12:36:22;9.70;96.50
71837;DHT22;59686;51.716;7.016;2023-12-14T12:38:48;9.70;96.50
71837;DHT22;59686;51.716;7.016;2023-12-14T12:41:26;9.70;96.60
71837;DHT22;59686;51.716;7.016;2023-12-14T12:44:05;9.60;96.50
71837;DHT22;59686;51.716;7.016;2023-12-14T12:46:37;9.60;96.50
71837;DHT22;59686;51.716;7.016;2023-12-14T12:49:40;9.60;96.40
71837;DHT22;59686;51.716;7.016;2023-12-14T12:52:09;9.60;96.40
71837;DHT22;59686;51.716;7.016;2023-12-14T12:54:35;9.70;96.40
71837;DHT22;59686;51.716;7.016;2023-12-14T12:57:01;9.70;96.40
71837;DHT22;59686;51.716;7.016;2023-12-14T12:59:27;9.60;96.20
71837;DHT22;59686;51.716;7.016;2023-12-14T13:01:59;9.60;96.20
71837;DHT22;59686;51.716;7.016;2023-12-14T13:04:24;9.60;96.20
71837;DHT22;59686;51.716;7.016;2023-12-14T13:06:52;9.60;96.20
71837;DHT22;59686;51.716;7.016;2023-12-14T13:09:18;9.60;96.30
71837;DHT22;59686;51.716;7.016;2023-12-14T13:11:46;9.60;96.30
71837;DHT22;59686;51.716;7.016;2023-12-14T13:14:12;9.60;96.30
71837;DHT22;59686;51.716;7.016;2023-12-14T13:16:40;9.70;96.20
71837;DHT22;59686;51.716;7.016;2023-12-14T13:19:06;9.60;96.20
71837;DHT22;59686;51.716;7.016;2023-12-14T13:21:35;9.60;96.10
71837;DHT22;59686;51.716;7.016;2023-12-14T13:24:04;9.60;96.20
71837;DHT22;59686;51.716;7.016;2023-12-14T13:26:30;9.60;96.00
71837;DHT22;59686;51.716;7.016;2023-12-14T13:28:56;9.60;96.10
71837;DHT22;59686;51.716;7.016;2023-12-14T13:31:21;9.50;96.10
71837;DHT22;59686;51.716;7.016;2023-12-14T13:33:57;9.60;96.10
71837;DHT22;59686;51.716;7.016;2023-12-14T13:36:23;9.60;96.20
71837;DHT22;59686;51.716;7.016;2023-12-14T13:38:49;9.60;96.10
71837;DHT22;59686;51.716;7.016;2023-12-14T13:41:25;9.60;96.20
71837;DHT22;59686;51.716;7.016;2023-12-14T13:43:50;9.60;96.20
71837;DHT22;59686;51.716;7.016;2023-12-14T13:46:17;9.60;95.90
71837;DHT22;59686;51.716;7.016;2023-12-14T13:48:43;9.60;96.20
71837;DHT22;59686;51.716;7.016;2023-12-14T13:51:09;9.60;96.20
71837;DHT22;59686;51.716;7.016;2023-12-14T13:53:34;9.60;96.00
71837;DHT22;59686;51.716;7.016;2023-12-14T13:56:00;9.60;96.20
71837;DHT22;59686;51.716;7.016;2023-12-14T13:58:36;9.60;96.20
71837;DHT22;59686;51.716;7.016;2023-12-14T14:01:05;9.60;96.20
71837;DHT22;59686;51.716;7.016;2023-12-14T14:03:35;9.60;96.20
71837;DHT22;59686;51.716;7.016;2023-12-14T14:06:01;9.60;96.20
71837;DHT22;59686;51.716;7.016;2023-12-14T14:08:28;9.60;96.20
71837;DHT22;59686;51.716;7.016;2023-12-14T14:10:53;9.60;96.20
71837;DHT22;59686;51.716;7.016;2023-12-14T14:13:19;9.60;96.20
71837;DHT22;59686;51.716;7.016;2023-12-14T14:15:47;9.60;96.20
71837;DHT22;59686;51.716;7.016;2023-12-14T14:18:13;9.50;96.30
71837;DHT22;59686;51.716;7.016;2023-12-14T14:20:38;9.50;96.30
71837;DHT22;59686;51.716;7.016;2023-12-14T14:23:05;9.50;96.20
71837;DHT22;59686;51.716;7.016;2023-12-14T14:25:37;9.70;96.30
71837;DHT22;59686;51.716;7.016;2023-12-14T14:28:03;9.50;96.10
71837;DHT22;59686;51.716;7.016;2023-12-14T14:30:35;9.50;96.20
71837;DHT22;59686;51.716;7.016;2023-12-14T14:33:15;9.50;96.10
71837;DHT22;59686;51.716;7.016;2023-12-14T14:36:14;9.50;96.20
71837;DHT22;59686;51.716;7.016;2023-12-14T14:38:39;9.50;96.10
71837;DHT22;59686;51.716;7.016;2023-12-14T14:41:13;9.50;96.20
71837;DHT22;59686;51.716;7.016;2023-12-14T14:43:39;9.50;96.10
71837;DHT22;59686;51.716;7.016;2023-12-14T14:46:05;9.50;96.00
71837;DHT22;59686;51.716;7.016;2023-12-14T14:48:31;9.50;96.00
71837;DHT22;59686;51.716;7.016;2023-12-14T14:51:05;9.50;96.00
71837;DHT22;59686;51.716;7.016;2023-12-14T14:53:31;9.50;96.00
71837;DHT22;59686;51.716;7.016;2023-12-14T14:55:57;9.50;96.00
71837;DHT22;59686;51.716;7.016;2023-12-14T14:58:32;9.50;96.00
71837;DHT22;59686;51.716;7.016;2023-12-14T15:00:58;9.50;96.00
71837;DHT22;59686;51.716;7.016;2023-12-14T15:03:26;9.50;96.00
71837;DHT22;59686;51.716;7.016;2023-12-14T15:05:52;9.60;96.00
71837;DHT22;59686;51.716;7.016;2023-12-14T15:08:17;9.50;95.90
71837;DHT22;59686;51.716;7.016;2023-12-14T15:10:43;9.50;95.90
71837;DHT22;59686;51.716;7.016;2023-12-14T15:13:18;9.50;96.00
71837;DHT22;59686;51.716;7.016;2023-12-14T15:15:52;9.60;96.00
71837;DHT22;59686;51.716;7.016;2023-12-14T15:18:23;9.50;96.00
71837;DHT22;59686;51.716;7.016;2023-12-14T15:20:49;9.40;96.00
71837;DHT22;59686;51.716;7.016;2023-12-14T15:23:31;9.50;96.10
71837;DHT22;59686;51.716;7.016;2023-12-14T15:26:01;9.50;96.10
71837;DHT22;59686;51.716;7.016;2023-12-14T15:28:26;9.60;96.10
71837;DHT22;59686;51.716;7.016;2023-12-14T15:31:03;9.50;96.10
71837;DHT22;59686;51.716;7.016;2023-12-14T15:33:29;9.50;96.00
71837;DHT22;59686;51.716;7.016;2023-12-14T15:36:24;9.50;95.90
71837;DHT22;59686;51.716;7.016;2023-12-14T15:38:55;9.50;96.00
71837;DHT22;59686;51.716;7.016;2023-12-14T15:41:21;9.50;96.00
71837;DHT22;59686;51.716;7.016;2023-12-14T15:44:01;9.50;95.90
71837;DHT22;59686;51.716;7.016;2023-12-14T15:46:34;9.50;95.90
71837;DHT22;59686;51.716;7.016;2023-12-14T15:49:08;9.40;95.90
71837;DHT22;59686;51.716;7.016;2023-12-14T15:51:38;9.40;95.90
71837;DHT22;59686;51.716;7.016;2023-12-14T15:54:04;9.50;96.00